sensor_id;sensor_type;location;lat;lon;timestamp;pressure;altitude;pressure_sealevel;temperature;humidity
18784;BME280;9520;50.954;6.968;2023-04-26T00:00:06;101280.75;;;14.29;38.76
18784;BME280;9520;50.954;6.968;2023-04-26T00:00:30;101268.50;;;14.22;38.60
18784;BME280;9520;50.954;6.968;2023-04-26T00:00:52;101275.47;;;14.27;38.75
18784;BME280;9520;50.954;6.968;2023-04-26T00:01:13;101273.72;;;14.26;38.41
18784;BME280;9520;50.954;6.968;2023-04-26T00:01:36;101271.22;;;14.20;38.57
18784;BME280;9520;50.954;6.968;2023-04-26T00:01:59;101278.16;;;14.26;38.79
18784;BME280;9520;50.954;6.968;2023-04-26T00:02:21;101278.19;;;14.24;38.66
18784;BME280;9520;50.954;6.968;2023-04-26T00:02:42;101274.78;;;14.19;38.71
18784;BME280;9520;50.954;6.968;2023-04-26T00:03:04;101277.31;;;14.24;38.86
18784;BME280;9520;50.954;6.968;2023-04-26T00:03:28;101280.88;;;14.23;38.65
18784;BME280;9520;50.954;6.968;2023-04-26T00:03:51;101279.13;;;14.22;38.81
18784;BME280;9520;50.954;6.968;2023-04-26T00:04:13;101268.63;;;14.16;38.89
18784;BME280;9520;50.954;6.968;2023-04-26T00:04:36;101273.81;;;14.22;38.69
18784;BME280;9520;50.954;6.968;2023-04-26T00:04:58;101271.22;;;14.20;38.75
18784;BME280;9520;50.954;6.968;2023-04-26T00:05:23;101287.09;;;14.22;38.86
18784;BME280;9520;50.954;6.968;2023-04-26T00:05:46;101270.38;;;14.18;38.90
18784;BME280;9520;50.954;6.968;2023-04-26T00:06:09;101280.06;;;14.19;38.66
18784;BME280;9520;50.954;6.968;2023-04-26T00:06:32;101277.41;;;14.19;38.29
18784;BME280;9520;50.954;6.968;2023-04-26T00:06:55;101282.66;;;14.22;38.61
18784;BME280;9520;50.954;6.968;2023-04-26T00:07:18;101276.53;;;14.20;38.69
18784;BME280;9520;50.954;6.968;2023-04-26T00:07:41;101280.81;;;14.26;38.85
18784;BME280;9520;50.954;6.968;2023-04-26T00:08:04;101279.00;;;14.28;38.89
18784;BME280;9520;50.954;6.968;2023-04-26T00:08:26;101273.69;;;14.28;38.89
18784;BME280;9520;50.954;6.968;2023-04-26T00:08:47;101280.78;;;14.27;38.76
18784;BME280;9520;50.954;6.968;2023-04-26T00:09:10;101278.97;;;14.30;38.48
18784;BME280;9520;50.954;6.968;2023-04-26T00:09:32;101284.38;;;14.25;38.58
18784;BME280;9520;50.954;6.968;2023-04-26T00:09:53;101280.81;;;14.26;38.76
18784;BME280;9520;50.954;6.968;2023-04-26T00:10:15;101285.22;;;14.27;38.88
18784;BME280;9520;50.954;6.968;2023-04-26T00:10:37;101286.09;;;14.26;38.68
18784;BME280;9520;50.954;6.968;2023-04-26T00:11:01;101283.53;;;14.23;38.63
18784;BME280;9520;50.954;6.968;2023-04-26T00:11:22;101276.53;;;14.20;38.40
18784;BME280;9520;50.954;6.968;2023-04-26T00:11:44;101287.94;;;14.24;38.34
18784;BME280;9520;50.954;6.968;2023-04-26T00:12:06;101281.84;;;14.19;38.48
18784;BME280;9520;50.954;6.968;2023-04-26T00:12:28;101281.84;;;14.20;38.82
18784;BME280;9520;50.954;6.968;2023-04-26T00:12:50;101278.31;;;14.18;38.57
18784;BME280;9520;50.954;6.968;2023-04-26T00:13:12;101274.78;;;14.19;38.35
18784;BME280;9520;50.954;6.968;2023-04-26T00:13:34;101273.91;;;14.19;38.14
18784;BME280;9520;50.954;6.968;2023-04-26T00:13:57;101278.31;;;14.20;38.66
18784;BME280;9520;50.954;6.968;2023-04-26T00:14:20;101282.78;;;14.16;38.92
18784;BME280;9520;50.954;6.968;2023-04-26T00:14:42;101279.28;;;14.14;38.86
18784;BME280;9520;50.954;6.968;2023-04-26T00:15:04;101272.25;;;14.12;38.95
18784;BME280;9520;50.954;6.968;2023-04-26T00:15:26;101273.94;;;14.16;38.99
18784;BME280;9520;50.954;6.968;2023-04-26T00:15:49;101280.13;;;14.16;39.11
18784;BME280;9520;50.954;6.968;2023-04-26T00:16:12;101279.25;;;14.16;38.92
18784;BME280;9520;50.954;6.968;2023-04-26T00:16:34;101273.91;;;14.17;38.84
18784;BME280;9520;50.954;6.968;2023-04-26T00:16:56;101277.50;;;14.15;39.01
18784;BME280;9520;50.954;6.968;2023-04-26T00:17:19;101273.94;;;14.16;39.08
18784;BME280;9520;50.954;6.968;2023-04-26T00:17:40;101273.13;;;14.12;38.81
18784;BME280;9520;50.954;6.968;2023-04-26T00:18:03;101278.34;;;14.17;38.84
18784;BME280;9520;50.954;6.968;2023-04-26T00:18:25;101269.56;;;14.13;38.75
18784;BME280;9520;50.954;6.968;2023-04-26T00:18:48;101268.78;;;14.10;38.72
18784;BME280;9520;50.954;6.968;2023-04-26T00:19:10;101270.47;;;14.14;38.92
18784;BME280;9520;50.954;6.968;2023-04-26T00:19:33;101278.34;;;14.17;39.14
18784;BME280;9520;50.954;6.968;2023-04-26T00:19:54;101276.59;;;14.16;39.07
18784;BME280;9520;50.954;6.968;2023-04-26T00:20:18;101281.88;;;14.16;38.69
18784;BME280;9520;50.954;6.968;2023-04-26T00:20:40;101274.00;;;14.13;38.98
18784;BME280;9520;50.954;6.968;2023-04-26T00:21:01;101279.34;;;14.11;38.92
18784;BME280;9520;50.954;6.968;2023-04-26T00:21:23;101281.19;;;14.08;38.97
18784;BME280;9520;50.954;6.968;2023-04-26T00:21:45;101279.44;;;14.07;38.91
18784;BME280;9520;50.954;6.968;2023-04-26T00:22:07;101282.97;;;14.07;38.96
18784;BME280;9520;50.954;6.968;2023-04-26T00:23:06;101274.19;;;14.04;39.29
18784;BME280;9520;50.954;6.968;2023-04-26T00:23:29;101283.06;;;14.03;39.06
18784;BME280;9520;50.954;6.968;2023-04-26T00:23:51;101284.72;;;14.07;38.92
18784;BME280;9520;50.954;6.968;2023-04-26T00:24:13;101276.78;;;14.07;38.85
18784;BME280;9520;50.954;6.968;2023-04-26T00:24:35;101276.78;;;14.07;39.03
18784;BME280;9520;50.954;6.968;2023-04-26T00:24:57;101275.97;;;14.03;39.16
18784;BME280;9520;50.954;6.968;2023-04-26T00:25:18;101269.00;;;13.98;39.14
18784;BME280;9520;50.954;6.968;2023-04-26T00:25:40;101281.25;;;14.05;39.08
18784;BME280;9520;50.954;6.968;2023-04-26T00:26:03;101286.66;;;14.00;38.90
18784;BME280;9520;50.954;6.968;2023-04-26T00:26:25;101276.00;;;14.02;38.89
18784;BME280;9520;50.954;6.968;2023-04-26T00:26:46;101282.16;;;14.04;39.33
18784;BME280;9520;50.954;6.968;2023-04-26T00:27:08;101277.81;;;14.00;39.36
18784;BME280;9520;50.954;6.968;2023-04-26T00:27:31;101275.13;;;14.01;39.29
18784;BME280;9520;50.954;6.968;2023-04-26T00:27:52;101283.06;;;14.01;39.30
18784;BME280;9520;50.954;6.968;2023-04-26T00:28:14;101268.19;;;13.94;39.50
18784;BME280;9520;50.954;6.968;2023-04-26T00:28:36;101277.81;;;14.00;39.24
18784;BME280;9520;50.954;6.968;2023-04-26T00:28:59;101272.56;;;13.97;39.13
18784;BME280;9520;50.954;6.968;2023-04-26T00:29:21;101278.59;;;14.05;38.88
18784;BME280;9520;50.954;6.968;2023-04-26T00:29:43;101270.66;;;14.03;39.02
18784;BME280;9520;50.954;6.968;2023-04-26T00:30:05;101275.94;;;14.05;39.35
18784;BME280;9520;50.954;6.968;2023-04-26T00:30:28;101275.06;;;14.04;39.17
18784;BME280;9520;50.954;6.968;2023-04-26T00:30:50;101279.44;;;14.07;39.11
18784;BME280;9520;50.954;6.968;2023-04-26T00:31:13;101257.59;;;13.93;38.96
18784;BME280;9520;50.954;6.968;2023-04-26T00:31:35;101274.22;;;14.02;39.16
18784;BME280;9520;50.954;6.968;2023-04-26T00:31:57;101278.63;;;14.03;39.12
18784;BME280;9520;50.954;6.968;2023-04-26T00:32:19;101276.00;;;14.02;38.73
18784;BME280;9520;50.954;6.968;2023-04-26T00:32:42;101266.34;;;13.98;38.79
18784;BME280;9520;50.954;6.968;2023-04-26T00:33:04;101270.66;;;14.05;38.84
18784;BME280;9520;50.954;6.968;2023-04-26T00:33:26;101261.13;;;13.93;38.71
18784;BME280;9520;50.954;6.968;2023-04-26T00:33:49;101275.19;;;13.98;38.54
18784;BME280;9520;50.954;6.968;2023-04-26T00:34:12;101277.91;;;13.95;38.76
18784;BME280;9520;50.954;6.968;2023-04-26T00:34:35;101256.91;;;13.84;39.00
18784;BME280;9520;50.954;6.968;2023-04-26T00:34:56;101276.97;;;13.96;38.86
18784;BME280;9520;50.954;6.968;2023-04-26T00:35:19;101278.72;;;13.97;38.62
18784;BME280;9520;50.954;6.968;2023-04-26T00:35:41;101275.16;;;14.00;38.78
18784;BME280;9520;50.954;6.968;2023-04-26T00:36:03;101275.13;;;14.01;38.79
18784;BME280;9520;50.954;6.968;2023-04-26T00:36:25;101276.03;;;14.00;38.74
18784;BME280;9520;50.954;6.968;2023-04-26T00:36:48;101269.78;;;14.03;39.18
18784;BME280;9520;50.954;6.968;2023-04-26T00:37:10;101275.94;;;14.05;38.72
18784;BME280;9520;50.954;6.968;2023-04-26T00:37:32;101275.94;;;14.05;38.55
18784;BME280;9520;50.954;6.968;2023-04-26T00:37:54;101276.88;;;14.02;38.88
18784;BME280;9520;50.954;6.968;2023-04-26T00:38:17;101259.47;;;13.89;38.91
18784;BME280;9520;50.954;6.968;2023-04-26T00:38:38;101276.03;;;14.00;38.94
18784;BME280;9520;50.954;6.968;2023-04-26T00:39:02;101278.72;;;13.97;39.25
18784;BME280;9520;50.954;6.968;2023-04-26T00:39:23;101264.66;;;13.95;38.84
18784;BME280;9520;50.954;6.968;2023-04-26T00:39:45;101255.94;;;13.89;39.00
18784;BME280;9520;50.954;6.968;2023-04-26T00:40:08;101278.72;;;13.97;39.07
18784;BME280;9520;50.954;6.968;2023-04-26T00:40:31;101269.09;;;13.93;39.09
18784;BME280;9520;50.954;6.968;2023-04-26T00:40:55;101269.09;;;13.93;38.97
18784;BME280;9520;50.954;6.968;2023-04-26T00:41:17;101264.75;;;13.91;39.08
18784;BME280;9520;50.954;6.968;2023-04-26T00:41:39;101267.31;;;13.94;38.99
18784;BME280;9520;50.954;6.968;2023-04-26T00:42:00;101270.88;;;13.93;39.06
18784;BME280;9520;50.954;6.968;2023-04-26T00:42:23;101258.69;;;13.82;39.10
18784;BME280;9520;50.954;6.968;2023-04-26T00:42:47;101266.53;;;13.89;39.13
18784;BME280;9520;50.954;6.968;2023-04-26T00:43:09;101271.78;;;13.92;39.05
18784;BME280;9520;50.954;6.968;2023-04-26T00:43:31;101268.22;;;13.93;38.96
18784;BME280;9520;50.954;6.968;2023-04-26T00:43:54;101269.19;;;13.89;39.00
18784;BME280;9520;50.954;6.968;2023-04-26T00:44:16;101256.03;;;13.84;39.18
18784;BME280;9520;50.954;6.968;2023-04-26T00:44:37;101265.69;;;13.87;39.15
18784;BME280;9520;50.954;6.968;2023-04-26T00:45:00;101263.91;;;13.87;38.90
18784;BME280;9520;50.954;6.968;2023-04-26T00:45:23;101268.31;;;13.87;38.87
18784;BME280;9520;50.954;6.968;2023-04-26T00:45:45;101273.63;;;13.87;39.02
18784;BME280;9520;50.954;6.968;2023-04-26T00:46:07;101250.03;;;13.74;39.07
18784;BME280;9520;50.954;6.968;2023-04-26T00:46:29;101265.69;;;13.87;39.05
18784;BME280;9520;50.954;6.968;2023-04-26T00:46:52;101264.00;;;13.82;39.16
18784;BME280;9520;50.954;6.968;2023-04-26T00:47:16;101264.03;;;13.81;39.20
18784;BME280;9520;50.954;6.968;2023-04-26T00:47:38;101264.88;;;13.83;39.28
18784;BME280;9520;50.954;6.968;2023-04-26T00:48:01;101268.38;;;13.85;39.58
18784;BME280;9520;50.954;6.968;2023-04-26T00:48:23;101263.09;;;13.85;39.33
18784;BME280;9520;50.954;6.968;2023-04-26T00:48:46;101260.34;;;13.88;39.35
18784;BME280;9520;50.954;6.968;2023-04-26T00:49:10;101265.69;;;13.87;39.21
18784;BME280;9520;50.954;6.968;2023-04-26T00:49:34;101265.63;;;13.90;39.28
18784;BME280;9520;50.954;6.968;2023-04-26T00:49:55;101266.56;;;13.87;39.36
18784;BME280;9520;50.954;6.968;2023-04-26T00:50:18;101272.81;;;13.84;39.28
18784;BME280;9520;50.954;6.968;2023-04-26T00:50:41;101256.03;;;13.82;39.22
18784;BME280;9520;50.954;6.968;2023-04-26T00:51:03;101267.53;;;13.83;39.32
18784;BME280;9520;50.954;6.968;2023-04-26T00:51:25;101268.41;;;13.82;39.09
18784;BME280;9520;50.954;6.968;2023-04-26T00:51:48;101267.59;;;13.80;39.28
18784;BME280;9520;50.954;6.968;2023-04-26T00:52:10;101268.47;;;13.80;39.59
18784;BME280;9520;50.954;6.968;2023-04-26T00:52:32;101266.72;;;13.79;39.87
18784;BME280;9520;50.954;6.968;2023-04-26T00:52:54;101268.47;;;13.80;39.55
18784;BME280;9520;50.954;6.968;2023-04-26T00:53:19;101263.97;;;13.84;39.41
18784;BME280;9520;50.954;6.968;2023-04-26T00:53:41;101264.00;;;13.82;39.45
18784;BME280;9520;50.954;6.968;2023-04-26T00:54:04;101262.19;;;13.84;39.29
18784;BME280;9520;50.954;6.968;2023-04-26T00:54:26;101263.97;;;13.84;39.23
18784;BME280;9520;50.954;6.968;2023-04-26T00:54:48;101258.75;;;13.79;39.17
18784;BME280;9520;50.954;6.968;2023-04-26T00:55:09;101263.97;;;13.84;39.23
18784;BME280;9520;50.954;6.968;2023-04-26T00:55:32;101262.28;;;13.80;39.41
18784;BME280;9520;50.954;6.968;2023-04-26T00:55:55;101263.97;;;13.86;39.31
18784;BME280;9520;50.954;6.968;2023-04-26T00:56:17;101264.06;;;13.79;39.37
18784;BME280;9520;50.954;6.968;2023-04-26T00:56:41;101258.81;;;13.76;39.34
18784;BME280;9520;50.954;6.968;2023-04-26T00:57:03;101256.13;;;13.78;39.22
18784;BME280;9520;50.954;6.968;2023-04-26T00:57:27;101258.66;;;13.84;39.55
18784;BME280;9520;50.954;6.968;2023-04-26T00:57:49;101263.09;;;13.85;39.66
18784;BME280;9520;50.954;6.968;2023-04-26T00:58:11;101262.19;;;13.86;39.65
18784;BME280;9520;50.954;6.968;2023-04-26T00:58:32;101258.59;;;13.87;39.58
18784;BME280;9520;50.954;6.968;2023-04-26T00:58:54;101257.69;;;13.90;39.52
18784;BME280;9520;50.954;6.968;2023-04-26T00:59:18;101261.22;;;13.89;39.52
18784;BME280;9520;50.954;6.968;2023-04-26T00:59:40;101257.72;;;13.87;39.60
18784;BME280;9520;50.954;6.968;2023-04-26T01:00:02;101263.97;;;13.84;39.69
18784;BME280;9520;50.954;6.968;2023-04-26T01:00:24;101260.44;;;13.83;39.51
18784;BME280;9520;50.954;6.968;2023-04-26T01:00:48;101263.09;;;13.85;39.86
18784;BME280;9520;50.954;6.968;2023-04-26T01:01:10;101264.84;;;13.84;39.54
18784;BME280;9520;50.954;6.968;2023-04-26T01:01:33;101260.53;;;13.79;39.44
18784;BME280;9520;50.954;6.968;2023-04-26T01:01:56;101261.41;;;13.81;39.43
18784;BME280;9520;50.954;6.968;2023-04-26T01:02:18;101261.31;;;13.86;39.29
18784;BME280;9520;50.954;6.968;2023-04-26T01:02:41;101260.44;;;13.83;39.54
18784;BME280;9520;50.954;6.968;2023-04-26T01:03:04;101265.69;;;13.87;39.77
18784;BME280;9520;50.954;6.968;2023-04-26T01:03:26;101265.69;;;13.87;39.36
18784;BME280;9520;50.954;6.968;2023-04-26T01:03:48;101245.50;;;13.81;39.68
18784;BME280;9520;50.954;6.968;2023-04-26T01:04:12;101266.56;;;13.87;39.34
18784;BME280;9520;50.954;6.968;2023-04-26T01:04:35;101270.97;;;13.87;39.41
18784;BME280;9520;50.954;6.968;2023-04-26T01:04:57;101266.59;;;13.86;39.47
18784;BME280;9520;50.954;6.968;2023-04-26T01:05:19;101264.88;;;13.83;39.61
18784;BME280;9520;50.954;6.968;2023-04-26T01:05:42;101270.97;;;13.88;39.36
18784;BME280;9520;50.954;6.968;2023-04-26T01:06:04;101269.16;;;13.90;39.32
18784;BME280;9520;50.954;6.968;2023-04-26T01:06:27;101263.00;;;13.90;39.24
18784;BME280;9520;50.954;6.968;2023-04-26T01:06:54;101267.41;;;13.91;39.15
18784;BME280;9520;50.954;6.968;2023-04-26T01:07:16;101257.81;;;13.82;39.19
18784;BME280;9520;50.954;6.968;2023-04-26T01:07:38;101261.16;;;13.92;39.20
18784;BME280;9520;50.954;6.968;2023-04-26T01:08:00;101266.47;;;13.92;39.12
18784;BME280;9520;50.954;6.968;2023-04-26T01:08:26;101273.56;;;13.91;38.93
18784;BME280;9520;50.954;6.968;2023-04-26T01:08:50;101260.34;;;13.88;39.30
18784;BME280;9520;50.954;6.968;2023-04-26T01:09:16;101267.41;;;13.91;39.44
18784;BME280;9520;50.954;6.968;2023-04-26T01:09:39;101271.81;;;13.90;39.66
18784;BME280;9520;50.954;6.968;2023-04-26T01:10:02;101267.41;;;13.91;39.56
18784;BME280;9520;50.954;6.968;2023-04-26T01:10:27;101269.19;;;13.89;39.41
18784;BME280;9520;50.954;6.968;2023-04-26T01:10:51;101267.44;;;13.88;39.26
18784;BME280;9520;50.954;6.968;2023-04-26T01:11:13;101274.50;;;13.87;39.31
18784;BME280;9520;50.954;6.968;2023-04-26T01:11:37;101274.56;;;13.86;39.29
18784;BME280;9520;50.954;6.968;2023-04-26T01:11:59;101267.53;;;13.81;39.50
18784;BME280;9520;50.954;6.968;2023-04-26T01:12:22;101267.50;;;13.84;39.38
18784;BME280;9520;50.954;6.968;2023-04-26T01:12:45;101266.72;;;13.79;39.57
18784;BME280;9520;50.954;6.968;2023-04-26T01:13:12;101267.69;;;13.75;39.57
18784;BME280;9520;50.954;6.968;2023-04-26T01:13:34;101274.72;;;13.76;39.75
18784;BME280;9520;50.954;6.968;2023-04-26T01:13:57;101271.31;;;13.71;39.67
18784;BME280;9520;50.954;6.968;2023-04-26T01:14:19;101266.75;;;13.76;39.32
18784;BME280;9520;50.954;6.968;2023-04-26T01:14:46;101271.22;;;13.74;39.56
18784;BME280;9520;50.954;6.968;2023-04-26T01:15:10;101281.81;;;13.76;39.73
18784;BME280;9520;50.954;6.968;2023-04-26T01:15:32;101281.84;;;13.74;39.70
18784;BME280;9520;50.954;6.968;2023-04-26T01:15:54;101266.91;;;13.70;39.75
18784;BME280;9520;50.954;6.968;2023-04-26T01:16:18;101273.88;;;13.74;39.73
18784;BME280;9520;50.954;6.968;2023-04-26T01:16:41;101259.03;;;13.64;39.51
18784;BME280;9520;50.954;6.968;2023-04-26T01:17:04;101273.03;;;13.72;39.49
18784;BME280;9520;50.954;6.968;2023-04-26T01:17:26;101279.19;;;13.74;39.44
18784;BME280;9520;50.954;6.968;2023-04-26T01:17:50;101275.63;;;13.75;39.65
18784;BME280;9520;50.954;6.968;2023-04-26T01:18:13;101276.53;;;13.74;39.64
18784;BME280;9520;50.954;6.968;2023-04-26T01:18:35;101276.53;;;13.74;39.81
18784;BME280;9520;50.954;6.968;2023-04-26T01:18:57;101278.31;;;13.72;39.88
18784;BME280;9520;50.954;6.968;2023-04-26T01:19:19;101277.44;;;13.73;39.77
18784;BME280;9520;50.954;6.968;2023-04-26T01:19:46;101280.16;;;13.70;39.65
18784;BME280;9520;50.954;6.968;2023-04-26T01:20:08;101279.25;;;13.71;39.73
18784;BME280;9520;50.954;6.968;2023-04-26T01:20:30;101277.44;;;13.73;40.00
18784;BME280;9520;50.954;6.968;2023-04-26T01:20:52;101279.25;;;13.71;39.92
18784;BME280;9520;50.954;6.968;2023-04-26T01:21:18;101273.94;;;13.71;39.88
18784;BME280;9520;50.954;6.968;2023-04-26T01:21:42;101272.31;;;13.63;39.84
18784;BME280;9520;50.954;6.968;2023-04-26T01:22:04;101281.13;;;13.66;39.98
18784;BME280;9520;50.954;6.968;2023-04-26T01:22:26;101280.16;;;13.69;39.97
18784;BME280;9520;50.954;6.968;2023-04-26T01:22:50;101280.16;;;13.70;39.85
18784;BME280;9520;50.954;6.968;2023-04-26T01:23:13;101277.50;;;13.70;39.75
18784;BME280;9520;50.954;6.968;2023-04-26T01:23:35;101285.53;;;13.66;39.68
18784;BME280;9520;50.954;6.968;2023-04-26T01:23:56;101277.59;;;13.66;39.70
18784;BME280;9520;50.954;6.968;2023-04-26T01:24:18;101275.03;;;13.61;39.64
18784;BME280;9520;50.954;6.968;2023-04-26T01:24:42;101284.59;;;13.67;39.64
18784;BME280;9520;50.954;6.968;2023-04-26T01:25:05;101283.72;;;13.68;39.79
18784;BME280;9520;50.954;6.968;2023-04-26T01:25:29;101278.47;;;13.66;39.84
18784;BME280;9520;50.954;6.968;2023-04-26T01:25:51;101291.72;;;13.66;39.70
18784;BME280;9520;50.954;6.968;2023-04-26T01:26:16;101283.69;;;13.69;39.57
18784;BME280;9520;50.954;6.968;2023-04-26T01:26:38;101269.56;;;13.67;39.61
18784;BME280;9520;50.954;6.968;2023-04-26T01:27:07;101285.50;;;13.67;39.84
18784;BME280;9520;50.954;6.968;2023-04-26T01:27:29;101278.38;;;13.69;39.58
18784;BME280;9520;50.954;6.968;2023-04-26T01:27:51;101279.28;;;13.68;39.68
18784;BME280;9520;50.954;6.968;2023-04-26T01:28:13;101280.16;;;13.70;39.78
18784;BME280;9520;50.954;6.968;2023-04-26T01:28:35;101272.19;;;13.70;39.63
18784;BME280;9520;50.954;6.968;2023-04-26T01:28:58;101271.34;;;13.68;39.82
18784;BME280;9520;50.954;6.968;2023-04-26T01:29:21;101278.31;;;13.72;39.57
18784;BME280;9520;50.954;6.968;2023-04-26T01:29:44;101280.97;;;13.72;39.60
18784;BME280;9520;50.954;6.968;2023-04-26T01:30:07;101283.59;;;13.74;39.67
18784;BME280;9520;50.954;6.968;2023-04-26T01:30:30;101281.84;;;13.74;39.70
18784;BME280;9520;50.954;6.968;2023-04-26T01:30:51;101269.53;;;13.70;39.71
18784;BME280;9520;50.954;6.968;2023-04-26T01:31:14;101270.44;;;13.69;39.50
18784;BME280;9520;50.954;6.968;2023-04-26T01:31:36;101267.69;;;13.74;39.69
18784;BME280;9520;50.954;6.968;2023-04-26T01:31:58;101272.16;;;13.72;39.68
18784;BME280;9520;50.954;6.968;2023-04-26T01:32:22;101279.25;;;13.71;39.67
18784;BME280;9520;50.954;6.968;2023-04-26T01:32:46;101280.16;;;13.69;39.74
18784;BME280;9520;50.954;6.968;2023-04-26T01:33:07;101276.63;;;13.68;39.95
18784;BME280;9520;50.954;6.968;2023-04-26T01:33:29;101275.81;;;13.65;39.94
18784;BME280;9520;50.954;6.968;2023-04-26T01:33:51;101274.94;;;13.66;40.03
18784;BME280;9520;50.954;6.968;2023-04-26T01:34:13;101280.25;;;13.64;40.22
18784;BME280;9520;50.954;6.968;2023-04-26T01:34:35;101279.38;;;13.64;40.23
18784;BME280;9520;50.954;6.968;2023-04-26T01:34:58;101283.78;;;13.63;40.09
18784;BME280;9520;50.954;6.968;2023-04-26T01:35:20;101282.03;;;13.62;40.31
18784;BME280;9520;50.954;6.968;2023-04-26T01:35:42;101289.13;;;13.62;40.22
18784;BME280;9520;50.954;6.968;2023-04-26T01:36:07;101268.13;;;13.51;40.13
18784;BME280;9520;50.954;6.968;2023-04-26T01:36:29;101284.78;;;13.58;39.92
18784;BME280;9520;50.954;6.968;2023-04-26T01:36:52;101271.66;;;13.52;39.89
18784;BME280;9520;50.954;6.968;2023-04-26T01:37:14;101272.47;;;13.54;39.85
18784;BME280;9520;50.954;6.968;2023-04-26T01:37:36;101279.53;;;13.55;40.14
18784;BME280;9520;50.954;6.968;2023-04-26T01:37:59;101283.03;;;13.57;39.99
18784;BME280;9520;50.954;6.968;2023-04-26T01:38:21;101283.94;;;13.56;40.11
18784;BME280;9520;50.954;6.968;2023-04-26T01:38:44;101277.78;;;13.55;40.26
18784;BME280;9520;50.954;6.968;2023-04-26T01:39:06;101283.09;;;13.54;40.33
18784;BME280;9520;50.954;6.968;2023-04-26T01:39:28;101281.34;;;13.53;40.37
18784;BME280;9520;50.954;6.968;2023-04-26T01:39:50;101282.22;;;13.53;40.30
18784;BME280;9520;50.954;6.968;2023-04-26T01:40:13;101276.97;;;13.52;40.43
18784;BME280;9520;50.954;6.968;2023-04-26T01:40:36;101288.44;;;13.51;40.15
18784;BME280;9520;50.954;6.968;2023-04-26T01:40:59;101285.81;;;13.49;40.22
18784;BME280;9520;50.954;6.968;2023-04-26T01:41:21;101286.72;;;13.48;40.22
18784;BME280;9520;50.954;6.968;2023-04-26T01:41:43;101284.94;;;13.50;40.05
18784;BME280;9520;50.954;6.968;2023-04-26T01:42:05;101271.84;;;13.41;40.25
18784;BME280;9520;50.954;6.968;2023-04-26T01:42:27;101279.56;;;13.53;39.96
18784;BME280;9520;50.954;6.968;2023-04-26T01:42:49;101283.94;;;13.56;39.78
18784;BME280;9520;50.954;6.968;2023-04-26T01:43:11;101273.44;;;13.51;39.75
18784;BME280;9520;50.954;6.968;2023-04-26T01:43:34;101284.81;;;13.56;39.92
18784;BME280;9520;50.954;6.968;2023-04-26T01:43:56;101269.06;;;13.47;40.14
18784;BME280;9520;50.954;6.968;2023-04-26T01:44:18;101285.75;;;13.52;40.34
18784;BME280;9520;50.954;6.968;2023-04-26T01:44:40;101282.22;;;13.53;40.36
18784;BME280;9520;50.954;6.968;2023-04-26T01:45:03;101283.97;;;13.54;40.60
18784;BME280;9520;50.954;6.968;2023-04-26T01:45:45;101277.84;;;13.51;40.46
18784;BME280;9520;50.954;6.968;2023-04-26T01:46:23;101290.16;;;13.53;40.37
18784;BME280;9520;50.954;6.968;2023-04-26T01:46:44;101284.84;;;13.55;40.43
18784;BME280;9520;50.954;6.968;2023-04-26T01:47:07;101283.09;;;13.52;40.44
18784;BME280;9520;50.954;6.968;2023-04-26T01:47:29;101280.41;;;13.55;40.51
18784;BME280;9520;50.954;6.968;2023-04-26T01:47:51;101285.72;;;13.55;40.31
18784;BME280;9520;50.954;6.968;2023-04-26T01:48:13;101289.19;;;13.59;40.19
18784;BME280;9520;50.954;6.968;2023-04-26T01:48:35;101275.06;;;13.58;40.37
18784;BME280;9520;50.954;6.968;2023-04-26T01:48:57;101279.56;;;13.53;40.48
18784;BME280;9520;50.954;6.968;2023-04-26T01:49:19;101277.78;;;13.55;40.31
18784;BME280;9520;50.954;6.968;2023-04-26T01:49:40;101283.03;;;13.57;40.30
18784;BME280;9520;50.954;6.968;2023-04-26T01:50:04;101277.69;;;13.58;40.18
18784;BME280;9520;50.954;6.968;2023-04-26T01:50:26;101285.72;;;13.55;40.16
18784;BME280;9520;50.954;6.968;2023-04-26T01:50:48;101280.44;;;13.54;39.94
18784;BME280;9520;50.954;6.968;2023-04-26T01:51:10;101272.66;;;13.45;40.07
18784;BME280;9520;50.954;6.968;2023-04-26T01:51:32;101276.97;;;13.52;40.17
18784;BME280;9520;50.954;6.968;2023-04-26T01:51:55;101272.56;;;13.51;40.50
18784;BME280;9520;50.954;6.968;2023-04-26T01:52:17;101284.97;;;13.47;40.52
18784;BME280;9520;50.954;6.968;2023-04-26T01:52:39;101282.31;;;13.47;40.35
18784;BME280;9520;50.954;6.968;2023-04-26T01:53:02;101276.19;;;13.45;40.28
18784;BME280;9520;50.954;6.968;2023-04-26T01:53:24;101256.91;;;13.35;40.63
18784;BME280;9520;50.954;6.968;2023-04-26T01:53:47;101270.00;;;13.46;40.62
18784;BME280;9520;50.954;6.968;2023-04-26T01:54:09;101278.84;;;13.45;40.51
18784;BME280;9520;50.954;6.968;2023-04-26T01:54:30;101281.41;;;13.48;40.27
18784;BME280;9520;50.954;6.968;2023-04-26T01:54:54;101276.91;;;13.53;40.36
18784;BME280;9520;50.954;6.968;2023-04-26T01:55:16;101276.91;;;13.53;40.12
18784;BME280;9520;50.954;6.968;2023-04-26T01:55:38;101275.22;;;13.49;39.89
18784;BME280;9520;50.954;6.968;2023-04-26T01:56:00;101269.91;;;13.51;39.73
18784;BME280;9520;50.954;6.968;2023-04-26T01:56:22;101265.50;;;13.48;39.80
18784;BME280;9520;50.954;6.968;2023-04-26T01:56:46;101275.28;;;13.46;40.00
18784;BME280;9520;50.954;6.968;2023-04-26T01:57:08;101277.00;;;13.47;40.24
18784;BME280;9520;50.954;6.968;2023-04-26T01:57:30;101275.19;;;13.51;40.26
18784;BME280;9520;50.954;6.968;2023-04-26T01:57:51;101275.28;;;13.46;40.24
18784;BME280;9520;50.954;6.968;2023-04-26T01:58:14;101276.16;;;13.47;40.25
18784;BME280;9520;50.954;6.968;2023-04-26T01:58:37;101281.41;;;13.48;40.61
18784;BME280;9520;50.954;6.968;2023-04-26T01:58:58;101269.06;;;13.47;40.34
18784;BME280;9520;50.954;6.968;2023-04-26T01:59:20;101270.78;;;13.50;40.25
18784;BME280;9520;50.954;6.968;2023-04-26T01:59:42;101271.69;;;13.50;40.45
18784;BME280;9520;50.954;6.968;2023-04-26T02:00:06;101272.56;;;13.51;40.33
18784;BME280;9520;50.954;6.968;2023-04-26T02:00:35;101272.56;;;13.49;40.31